createdAt,value
2018-06-15T00:00:36.333Z,70.76
2018-06-15T00:01:36.231Z,71.14
2018-06-15T00:02:36.139Z,71.14
2018-06-15T00:03:36.038Z,70.34
2018-06-15T00:04:35.945Z,68.36
2018-06-15T00:05:35.854Z,68.52
2018-06-15T00:06:35.751Z,70.24
2018-06-15T00:07:35.659Z,70.34
2018-06-15T00:08:35.569Z,70.66
2018-06-15T00:09:35.466Z,71.23
2018-06-15T00:10:35.374Z,72.00
2018-06-15T00:11:35.271Z,71.42
2018-06-15T00:12:35.181Z,71.91
2018-06-15T00:13:35.091Z,73.24
2018-06-15T00:14:34.986Z,73.82
2018-06-15T00:15:34.896Z,74.11
2018-06-15T00:16:34.794Z,73.63
2018-06-15T00:17:34.701Z,74.40
2018-06-15T00:18:34.611Z,75.64
2018-06-15T00:19:34.508Z,75.83
2018-06-15T00:20:34.416Z,75.26
2018-06-15T00:21:34.314Z,75.35
2018-06-15T00:22:34.224Z,75.07
2018-06-15T00:23:34.130Z,75.54
2018-06-15T00:24:34.028Z,75.45
2018-06-15T00:25:33.939Z,75.83
2018-06-15T00:26:33.835Z,76.21
2018-06-15T00:27:33.743Z,76.79
2018-06-15T00:28:33.652Z,77.55
2018-06-15T00:29:33.561Z,77.94
2018-06-15T00:30:33.458Z,78.07
2018-06-15T00:31:33.357Z,78.93
2018-06-15T00:32:33.266Z,79.80
2018-06-15T00:33:33.173Z,79.51
2018-06-15T00:34:33.070Z,80.08
2018-06-15T00:35:32.983Z,79.99
2018-06-15T00:36:32.888Z,79.99
2018-06-15T00:37:32.786Z,79.99
2018-06-15T00:38:32.696Z,81.33
2018-06-15T00:39:32.592Z,79.89
2018-06-15T00:40:32.501Z,79.70
2018-06-15T00:41:32.410Z,79.99
2018-06-15T00:42:32.307Z,79.99
2018-06-15T00:43:32.215Z,80.37
2018-06-15T00:44:32.112Z,80.27
2018-06-15T00:45:32.023Z,80.18
2018-06-15T00:46:31.931Z,80.27
2018-06-15T00:47:31.828Z,80.18
2018-06-15T00:48:31.737Z,80.85
2018-06-15T00:49:31.680Z,80.99
2018-06-15T00:50:31.542Z,80.99
2018-06-15T00:51:31.456Z,81.75
2018-06-15T00:52:31.349Z,81.18
2018-06-15T00:53:31.257Z,81.66
2018-06-15T00:54:31.154Z,81.18
2018-06-15T00:55:31.063Z,80.99
2018-06-15T00:56:30.976Z,81.56
2018-06-15T00:57:30.868Z,81.56
2018-06-15T00:58:30.779Z,82.14
2018-06-15T00:59:30.676Z,81.75
2018-06-15T01:00:30.834Z,81.37
2018-06-15T01:01:30.493Z,81.95
2018-06-15T01:02:30.391Z,81.37
2018-06-15T01:03:30.299Z,81.37
2018-06-15T01:04:30.195Z,81.08
2018-06-15T01:05:30.107Z,80.70
2018-06-15T01:06:30.015Z,80.32
2018-06-15T01:07:29.911Z,80.99
2018-06-15T01:08:29.821Z,80.03
2018-06-15T01:09:29.718Z,80.03
2018-06-15T01:10:29.625Z,80.83
2018-06-15T01:11:29.538Z,80.74
2018-06-15T01:12:29.433Z,80.12
2018-06-15T01:13:29.341Z,80.55
2018-06-15T01:14:29.238Z,80.41
2018-06-15T01:15:29.151Z,80.12
2018-06-15T01:16:29.057Z,80.32
2018-06-15T01:17:28.953Z,79.88
2018-06-15T01:18:28.887Z,80.03
2018-06-15T01:19:28.759Z,80.26
2018-06-15T01:20:28.918Z,80.12
2018-06-15T01:21:28.577Z,79.59
2018-06-15T01:22:28.475Z,79.88
2018-06-15T01:23:28.383Z,79.16
2018-06-15T01:24:28.281Z,78.97
2018-06-15T01:25:28.189Z,79.16
2018-06-15T01:26:28.098Z,79.26
2018-06-15T01:27:27.995Z,79.36
2018-06-15T01:28:27.905Z,78.69
2018-06-15T01:29:27.813Z,79.16
2018-06-15T01:30:27.710Z,78.40
2018-06-15T01:31:27.620Z,78.49
2018-06-15T01:32:27.517Z,78.49
2018-06-15T01:33:27.425Z,77.92
2018-06-15T01:34:27.326Z,78.49
2018-06-15T01:35:27.232Z,77.82
2018-06-15T01:36:27.140Z,78.20
2018-06-15T01:37:27.037Z,77.82
2018-06-15T01:38:26.947Z,77.82
2018-06-15T01:39:26.856Z,77.82
2018-06-15T01:40:26.752Z,77.53
2018-06-15T01:41:26.665Z,77.25
2018-06-15T01:42:26.558Z,77.73
2018-06-15T01:43:26.467Z,77.73
2018-06-15T01:44:26.377Z,77.06
2018-06-15T01:45:26.273Z,77.92
2018-06-15T01:46:26.182Z,77.44
2018-06-15T01:47:26.094Z,77.53
2018-06-15T01:48:25.988Z,77.15
2018-06-15T01:49:25.897Z,77.25
2018-06-15T01:50:26.093Z,76.57
2018-06-15T01:51:25.703Z,76.96
2018-06-15T01:52:25.612Z,76.67
2018-06-15T01:53:25.508Z,77.06
2018-06-15T01:54:25.419Z,76.96
2018-06-15T01:55:25.326Z,76.86
2018-06-15T01:56:25.223Z,76.96
2018-06-15T01:57:25.138Z,76.67
2018-06-15T01:58:25.031Z,76.10
2018-06-15T01:59:24.942Z,76.10
2018-06-15T02:00:24.849Z,76.48
2018-06-15T02:01:24.888Z,75.71
2018-06-15T02:02:24.654Z,75.23
2018-06-15T02:03:24.564Z,76.19
2018-06-15T02:04:24.462Z,75.23
2018-06-15T02:05:24.369Z,74.85
2018-06-15T02:06:24.266Z,74.95
2018-06-15T02:07:24.176Z,74.57
2018-06-15T02:08:24.084Z,74.76
2018-06-15T02:09:23.981Z,74.27
2018-06-15T02:10:23.899Z,73.99
2018-06-15T02:11:23.788Z,73.90
2018-06-15T02:12:23.696Z,73.80
2018-06-15T02:13:23.640Z,74.08
2018-06-15T02:14:23.503Z,74.47
2018-06-15T02:15:23.412Z,73.80
2018-06-15T02:16:23.322Z,73.90
2018-06-15T02:17:23.217Z,73.22
2018-06-15T02:18:23.127Z,73.32
2018-06-15T02:19:23.024Z,74.18
2018-06-15T02:20:23.183Z,73.51
2018-06-15T02:21:22.841Z,73.41
2018-06-15T02:22:22.740Z,72.99
2018-06-15T02:23:22.649Z,73.19
2018-06-15T02:24:22.556Z,74.15
2018-06-15T02:25:22.453Z,73.47
2018-06-15T02:26:22.362Z,72.74
2018-06-15T02:27:22.274Z,72.36
2018-06-15T02:28:22.168Z,72.80
2018-06-15T02:29:22.078Z,72.36
2018-06-15T02:30:21.975Z,72.07
2018-06-15T02:31:21.884Z,72.13
2018-06-15T02:32:21.794Z,71.98
2018-06-15T02:33:21.691Z,72.32
2018-06-15T02:34:21.599Z,71.21
2018-06-15T02:35:21.509Z,70.98
2018-06-15T02:36:21.405Z,71.56
2018-06-15T02:37:21.319Z,70.83
2018-06-15T02:38:21.217Z,71.50
2018-06-15T02:39:21.120Z,70.92
2018-06-15T02:40:21.028Z,71.21
2018-06-15T02:41:20.926Z,70.98
2018-06-15T02:42:20.841Z,71.78
2018-06-15T02:43:20.744Z,71.27
2018-06-15T02:44:20.640Z,70.60
2018-06-15T02:45:20.583Z,71.84
2018-06-15T02:46:20.458Z,71.56
2018-06-15T02:47:20.357Z,71.84
2018-06-15T02:48:20.269Z,71.66
2018-06-15T02:49:20.174Z,71.69
2018-06-15T02:50:20.071Z,70.64
2018-06-15T02:51:19.980Z,70.73
2018-06-15T02:52:19.888Z,71.17
2018-06-15T02:53:19.785Z,70.64
2018-06-15T02:54:19.696Z,71.02
2018-06-15T02:55:19.604Z,70.83
2018-06-15T02:56:19.501Z,70.83
2018-06-15T02:57:19.411Z,71.02
2018-06-15T02:58:19.307Z,71.88
2018-06-15T02:59:19.215Z,70.64
2018-06-15T03:00:19.125Z,70.73
2018-06-15T03:01:19.022Z,72.36
2018-06-15T03:02:18.931Z,71.40
2018-06-15T03:03:18.828Z,70.73
2018-06-15T03:04:18.736Z,70.92
2018-06-15T03:05:18.681Z,71.59
2018-06-15T03:06:18.542Z,70.73
2018-06-15T03:07:18.456Z,70.83
2018-06-15T03:08:18.362Z,71.69
2018-06-15T03:09:18.258Z,70.73
2018-06-15T03:10:18.167Z,70.64
2018-06-15T03:11:18.075Z,70.92
2018-06-15T03:12:17.972Z,71.69
2018-06-15T03:13:17.882Z,71.59
2018-06-15T03:14:17.791Z,70.54
2018-06-15T03:15:17.687Z,70.54
2018-06-15T03:16:17.597Z,70.73
2018-06-15T03:17:17.494Z,70.06
2018-06-15T03:18:17.402Z,69.58
2018-06-15T03:19:17.313Z,69.29
2018-06-15T03:20:17.209Z,69.68
2018-06-15T03:21:17.121Z,70.06
2018-06-15T03:22:17.027Z,69.58
2018-06-15T03:23:16.926Z,69.01
2018-06-15T03:24:16.832Z,69.39
2018-06-15T03:25:17.042Z,68.72
2018-06-15T03:26:16.639Z,69.48
2018-06-15T03:27:16.548Z,68.91
2018-06-15T03:28:16.446Z,68.91
2018-06-15T03:29:16.354Z,67.95
2018-06-15T03:30:16.262Z,67.76
2018-06-15T03:31:16.160Z,68.91
2018-06-15T03:32:16.070Z,68.91
2018-06-15T03:33:15.977Z,67.85
2018-06-15T03:34:15.874Z,67.95
2018-06-15T03:35:15.789Z,68.43
2018-06-15T03:36:15.693Z,67.85
2018-06-15T03:37:15.592Z,67.95
2018-06-15T03:38:15.499Z,67.85
2018-06-15T03:39:15.407Z,67.85
2018-06-15T03:40:15.304Z,67.66
2018-06-15T03:41:15.221Z,67.95
2018-06-15T03:42:15.110Z,68.14
2018-06-15T03:43:15.019Z,67.47
2018-06-15T03:44:14.929Z,68.43
2018-06-15T03:45:14.829Z,68.14
2018-06-15T03:46:14.734Z,68.91
2018-06-15T03:47:14.644Z,67.99
2018-06-15T03:48:14.540Z,67.79
2018-06-15T03:49:14.496Z,67.89
2018-06-15T03:50:14.360Z,67.69
2018-06-15T03:51:14.257Z,67.66
2018-06-15T03:52:14.164Z,67.89
2018-06-15T03:53:14.075Z,67.22
2018-06-15T03:54:13.972Z,67.18
2018-06-15T03:55:14.131Z,67.79
2018-06-15T03:56:13.790Z,67.12
2018-06-15T03:57:13.686Z,67.12
2018-06-15T03:58:13.595Z,67.02
2018-06-15T03:59:13.494Z,67.69
2018-06-15T04:00:13.402Z,67.22
2018-06-15T04:01:13.323Z,67.02
2018-06-15T04:02:13.220Z,67.02
2018-06-15T04:03:13.118Z,67.41
2018-06-15T04:04:13.025Z,67.32
2018-06-15T04:05:13.235Z,67.69
2018-06-15T04:06:12.833Z,67.89
2018-06-15T04:07:12.743Z,68.75
2018-06-15T04:08:12.651Z,68.95
2018-06-15T04:09:12.547Z,68.46
2018-06-15T04:10:12.455Z,67.89
2018-06-15T04:11:12.365Z,68.95
2018-06-15T04:12:12.263Z,68.56
2018-06-15T04:13:12.214Z,68.56
2018-06-15T04:14:12.080Z,68.56
2018-06-15T04:15:11.976Z,68.79
2018-06-15T04:16:11.888Z,69.56
2018-06-15T04:17:11.795Z,69.74
2018-06-15T04:18:11.694Z,68.88
2018-06-15T04:19:11.613Z,69.07
2018-06-15T04:20:11.511Z,69.46
2018-06-15T04:21:11.407Z,68.21
2018-06-15T04:22:11.315Z,68.88
2018-06-15T04:23:11.225Z,68.30
2018-06-15T04:24:11.122Z,68.98
2018-06-15T04:25:11.031Z,68.88
2018-06-15T04:26:10.941Z,68.79
2018-06-15T04:27:10.849Z,69.52
2018-06-15T04:28:10.745Z,68.02
2018-06-15T04:29:10.655Z,68.30
2018-06-15T04:30:10.564Z,69.17
2018-06-15T04:31:10.461Z,68.88
2018-06-15T04:32:10.371Z,68.69
2018-06-15T04:33:10.279Z,68.30
2018-06-15T04:34:10.176Z,69.46
2018-06-15T04:35:10.086Z,68.98
2018-06-15T04:36:09.994Z,68.79
2018-06-15T04:37:09.904Z,70.13
2018-06-15T04:38:09.803Z,70.36
2018-06-15T04:39:09.709Z,70.51
2018-06-15T04:40:09.870Z,70.90
2018-06-15T04:41:09.516Z,71.31
2018-06-15T04:42:09.425Z,71.22
2018-06-15T04:43:09.334Z,71.12
2018-06-15T04:44:09.242Z,71.80
2018-06-15T04:45:09.141Z,71.80
2018-06-15T04:46:09.049Z,71.41
2018-06-15T04:47:08.959Z,71.22
2018-06-15T04:48:08.869Z,71.80
2018-06-15T04:49:08.764Z,71.61
2018-06-15T04:50:08.673Z,72.37
2018-06-15T04:51:08.586Z,72.18
2018-06-15T04:52:08.482Z,72.28
2018-06-15T04:53:08.390Z,72.08
2018-06-15T04:54:08.298Z,71.41
2018-06-15T04:55:08.206Z,71.98
2018-06-15T04:56:08.104Z,71.98
2018-06-15T04:57:08.013Z,72.66
2018-06-15T04:58:07.921Z,72.22
2018-06-15T04:59:07.832Z,71.89
2018-06-15T05:00:07.979Z,72.31
2018-06-15T05:01:07.638Z,72.31
2018-06-15T05:02:07.547Z,72.79
2018-06-15T05:03:07.455Z,72.99
2018-06-15T05:04:07.352Z,74.23
2018-06-15T05:05:07.263Z,73.94
2018-06-15T05:06:07.175Z,74.04
2018-06-15T05:07:07.079Z,74.90
2018-06-15T05:08:06.976Z,75.10
2018-06-15T05:09:06.942Z,75.13
2018-06-15T05:10:06.798Z,75.71
2018-06-15T05:11:06.706Z,75.23
2018-06-15T05:12:06.602Z,75.81
2018-06-15T05:13:06.512Z,75.81
2018-06-15T05:14:06.418Z,77.63
2018-06-15T05:15:06.329Z,76.96
2018-06-15T05:16:06.239Z,77.15
2018-06-15T05:17:06.134Z,76.29
2018-06-15T05:18:06.044Z,77.15
2018-06-15T05:19:05.952Z,77.92
2018-06-15T05:20:06.122Z,76.57
2018-06-15T05:21:05.773Z,77.15
2018-06-15T05:22:05.667Z,78.06
2018-06-15T05:23:05.577Z,78.92
2018-06-15T05:24:05.485Z,77.19
2018-06-15T05:25:05.395Z,78.63
2018-06-15T05:26:05.304Z,78.25
2018-06-15T05:27:05.201Z,79.02
2018-06-15T05:28:05.111Z,78.06
2018-06-15T05:29:05.019Z,77.67
2018-06-15T05:30:04.946Z,79.21
2018-06-15T05:31:04.851Z,78.63
2018-06-15T05:32:04.734Z,77.38
2018-06-15T05:33:04.644Z,77.67
2018-06-15T05:34:04.552Z,79.40
2018-06-15T05:35:04.463Z,77.09
2018-06-15T05:36:04.370Z,77.76
2018-06-15T05:37:04.280Z,77.29
2018-06-15T05:38:04.178Z,77.76
2018-06-15T05:39:04.086Z,77.38
2018-06-15T05:40:03.995Z,77.76
2018-06-15T05:41:03.904Z,78.53
2018-06-15T05:42:03.813Z,77.58
2018-06-15T05:43:03.711Z,77.48
2018-06-15T05:44:03.618Z,78.15
2018-06-15T05:45:03.529Z,78.96
2018-06-15T05:46:03.438Z,78.83
2018-06-15T05:47:03.347Z,78.86
2018-06-15T05:48:03.256Z,78.53
2018-06-15T05:49:03.154Z,77.19
2018-06-15T05:50:03.063Z,79.79
2018-06-15T05:51:02.971Z,77.38
2018-06-15T05:52:02.883Z,79.11
2018-06-15T05:53:02.789Z,77.48
2018-06-15T05:54:02.703Z,78.06
2018-06-15T05:55:02.597Z,78.15
2018-06-15T05:56:02.505Z,76.90
2018-06-15T05:57:02.415Z,78.48
2018-06-15T05:58:02.323Z,78.86
2018-06-15T05:59:02.233Z,78.38
2018-06-15T06:00:02.154Z,79.73
2018-06-15T06:01:02.055Z,81.46
2018-06-15T06:02:01.949Z,80.11
2018-06-15T06:03:01.856Z,80.30
2018-06-15T06:04:01.850Z,81.37
2018-06-15T06:05:01.676Z,80.21
2018-06-15T06:06:01.585Z,79.92
2018-06-15T06:07:01.494Z,79.82
2018-06-15T06:08:01.403Z,80.50
2018-06-15T06:09:01.301Z,79.73
2018-06-15T06:10:01.208Z,80.83
2018-06-15T06:11:01.118Z,82.27
2018-06-15T06:12:01.026Z,81.60
2018-06-15T06:13:00.937Z,80.44
2018-06-15T06:14:00.844Z,82.85
2018-06-15T06:15:00.754Z,82.17
2018-06-15T06:16:00.652Z,80.83
2018-06-15T06:17:00.559Z,82.08
2018-06-15T06:18:00.473Z,82.21
2018-06-15T06:19:00.378Z,82.89
2018-06-15T06:20:00.347Z,83.23
2018-06-15T06:21:00.196Z,82.94
2018-06-15T06:22:00.107Z,82.17
2018-06-15T06:23:00.017Z,82.37
2018-06-15T06:23:59.913Z,80.73
2018-06-15T06:25:00.074Z,82.17
2018-06-15T06:25:59.731Z,81.50
2018-06-15T06:26:59.641Z,81.70
2018-06-15T06:27:59.548Z,82.85
2018-06-15T06:28:59.459Z,82.08
2018-06-15T06:29:59.367Z,81.60
2018-06-15T06:30:59.276Z,80.35
2018-06-15T06:31:59.185Z,80.92
2018-06-15T06:32:59.095Z,80.63
2018-06-15T06:33:58.991Z,81.30
2018-06-15T06:34:58.900Z,82.27
2018-06-15T06:35:58.809Z,82.65
2018-06-15T06:36:58.725Z,82.37
2018-06-15T06:37:58.694Z,81.98
2018-06-15T06:38:58.536Z,82.46
2018-06-15T06:39:58.448Z,81.70
2018-06-15T06:40:58.355Z,80.83
2018-06-15T06:41:58.265Z,82.70
2018-06-15T06:42:58.173Z,80.87
2018-06-15T06:43:58.073Z,82.60
2018-06-15T06:44:58.230Z,83.08
2018-06-15T06:45:57.888Z,82.21
2018-06-15T06:46:57.798Z,81.93
2018-06-15T06:47:57.707Z,81.30
2018-06-15T06:48:57.617Z,80.87
2018-06-15T06:49:57.528Z,81.25
2018-06-15T06:50:57.436Z,81.83
2018-06-15T06:51:57.344Z,81.63
2018-06-15T06:52:57.254Z,82.02
2018-06-15T06:53:57.163Z,82.50
2018-06-15T06:54:57.072Z,83.18
2018-06-15T06:55:56.981Z,82.31
2018-06-15T06:56:56.879Z,82.89
2018-06-15T06:57:56.789Z,81.63
2018-06-15T06:58:56.696Z,82.89
2018-06-15T06:59:56.860Z,83.18
2018-06-15T07:00:56.514Z,82.98
2018-06-15T07:01:56.424Z,82.21
2018-06-15T07:02:56.338Z,82.89
2018-06-15T07:03:56.243Z,82.21
2018-06-15T07:04:56.151Z,82.21
2018-06-15T07:05:56.061Z,82.50
2018-06-15T07:06:55.970Z,82.21
2018-06-15T07:07:55.879Z,82.21
2018-06-15T07:08:55.789Z,81.73
2018-06-15T07:09:55.935Z,82.02
2018-06-15T07:10:55.595Z,81.93
2018-06-15T07:11:55.502Z,81.54
2018-06-15T07:12:55.413Z,81.63
2018-06-15T07:13:55.324Z,81.63
2018-06-15T07:14:55.231Z,80.58
2018-06-15T07:15:55.144Z,81.25
2018-06-15T07:16:55.055Z,80.48
2018-06-15T07:17:54.958Z,80.19
2018-06-15T07:18:54.869Z,80.96
2018-06-15T07:19:54.776Z,83.18
2018-06-15T07:20:54.687Z,82.21
2018-06-15T07:21:54.594Z,82.89
2018-06-15T07:22:54.493Z,82.31
2018-06-15T07:23:54.409Z,82.54
2018-06-15T07:24:54.310Z,82.12
2018-06-15T07:25:54.220Z,82.35
2018-06-15T07:26:54.128Z,82.45
2018-06-15T07:27:54.039Z,82.83
2018-06-15T07:28:53.946Z,83.22
2018-06-15T07:29:53.856Z,83.12
2018-06-15T07:30:53.765Z,83.94
2018-06-15T07:31:53.676Z,84.32
2018-06-15T07:32:53.584Z,83.07
2018-06-15T07:33:53.494Z,84.32
2018-06-15T07:34:53.416Z,83.64
2018-06-15T07:35:53.312Z,84.42
2018-06-15T07:36:53.220Z,84.84
2018-06-15T07:37:53.120Z,85.81
2018-06-15T07:38:53.038Z,85.33
2018-06-15T07:39:52.937Z,86.10
2018-06-15T07:40:52.845Z,84.27
2018-06-15T07:41:52.754Z,86.10
2018-06-15T07:42:52.664Z,85.52
2018-06-15T07:43:52.572Z,85.23
2018-06-15T07:44:52.482Z,86.10
2018-06-15T07:45:52.390Z,84.90
2018-06-15T07:46:52.301Z,85.23
2018-06-15T07:47:52.222Z,85.23
2018-06-15T07:48:52.118Z,85.42
2018-06-15T07:49:52.028Z,85.33
2018-06-15T07:50:51.937Z,85.08
2018-06-15T07:51:51.848Z,86.33
2018-06-15T07:52:51.756Z,86.18
2018-06-15T07:53:51.664Z,86.28
2018-06-15T07:54:51.573Z,85.55
2018-06-15T07:55:51.483Z,85.55
2018-06-15T07:56:51.393Z,85.26
2018-06-15T07:57:51.301Z,85.21
2018-06-15T07:58:51.222Z,84.38
2018-06-15T07:59:51.133Z,83.22
2018-06-15T08:00:51.040Z,82.10
2018-06-15T08:01:50.950Z,81.37
2018-06-15T08:02:50.858Z,79.62
2018-06-15T08:03:50.769Z,78.94
2018-06-15T08:04:50.677Z,77.50
2018-06-15T08:05:50.587Z,77.20
2018-06-15T08:06:50.495Z,77.94
2018-06-15T08:07:50.406Z,78.81
2018-06-15T08:08:50.315Z,78.61
2018-06-15T08:09:50.238Z,78.61
2018-06-15T08:10:50.146Z,78.33
2018-06-15T08:11:50.062Z,77.36
2018-06-15T08:12:49.962Z,78.03
2018-06-15T08:13:49.872Z,78.87
2018-06-15T08:14:49.782Z,79.45
2018-06-15T08:15:49.735Z,79.39
2018-06-15T08:16:49.612Z,80.07
2018-06-15T08:17:49.524Z,79.25
2018-06-15T08:18:49.431Z,79.64
2018-06-15T08:19:49.341Z,78.96
2018-06-15T08:20:49.253Z,79.16
2018-06-15T08:21:49.159Z,79.45
2018-06-15T08:22:49.069Z,79.64
2018-06-15T08:23:48.990Z,80.71
2018-06-15T08:24:48.900Z,80.22
2018-06-15T08:25:48.807Z,81.19
2018-06-15T08:26:48.717Z,80.22
2018-06-15T08:27:48.677Z,81.05
2018-06-15T08:28:48.536Z,81.92
2018-06-15T08:29:48.445Z,81.92
2018-06-15T08:30:48.365Z,82.60
2018-06-15T08:31:48.275Z,82.45
2018-06-15T08:32:48.184Z,82.79
2018-06-15T08:33:48.104Z,82.40
2018-06-15T08:34:48.003Z,83.47
2018-06-15T08:35:47.913Z,82.64
2018-06-15T08:36:47.834Z,82.00
2018-06-15T08:37:47.751Z,80.55
2018-06-15T08:38:47.653Z,80.32
2018-06-15T08:39:47.561Z,81.04
2018-06-15T08:40:47.471Z,79.58
2018-06-15T08:41:47.382Z,77.07
2018-06-15T08:42:47.300Z,76.72
2018-06-15T08:43:47.211Z,78.33
2018-06-15T08:44:47.120Z,77.98
2018-06-15T08:45:47.033Z,78.03
2018-06-15T08:46:46.938Z,78.33
2018-06-15T08:47:46.849Z,79.29
2018-06-15T08:48:46.759Z,79.20
2018-06-15T08:49:46.719Z,78.81
2018-06-15T08:50:46.589Z,78.56
2018-06-15T08:51:46.496Z,76.33
2018-06-15T08:52:46.433Z,77.45
2018-06-15T08:53:46.315Z,78.17
2018-06-15T08:54:46.224Z,77.98
2018-06-15T08:55:46.147Z,75.56
2018-06-15T08:56:46.097Z,75.17
2018-06-15T08:57:45.964Z,75.27
2018-06-15T08:58:45.873Z,75.27
2018-06-15T08:59:46.033Z,76.04
2018-06-15T09:00:45.704Z,75.75
2018-06-15T09:01:45.629Z,76.24
2018-06-15T09:02:45.523Z,77.01
2018-06-15T09:03:45.431Z,76.62
2018-06-15T09:04:45.344Z,76.18
2018-06-15T09:05:45.263Z,74.40
2018-06-15T09:06:45.171Z,74.21
2018-06-15T09:07:45.082Z,73.95
2018-06-15T09:08:44.991Z,73.47
2018-06-15T09:09:44.901Z,73.85
2018-06-15T09:10:44.822Z,72.69
2018-06-15T09:11:44.729Z,73.31
2018-06-15T09:12:44.639Z,72.69
2018-06-15T09:13:44.549Z,73.91
2018-06-15T09:14:44.470Z,73.91
2018-06-15T09:15:44.381Z,75.46
2018-06-15T09:16:44.288Z,75.27
2018-06-15T09:17:44.205Z,74.98
2018-06-15T09:18:44.119Z,75.46
2018-06-15T09:19:44.029Z,76.33
2018-06-15T09:20:43.941Z,75.75
2018-06-15T09:21:43.847Z,75.17
2018-06-15T09:22:43.758Z,73.43
2018-06-15T09:23:43.678Z,74.05
2018-06-15T09:24:43.588Z,73.85
2018-06-15T09:25:43.497Z,74.69
2018-06-15T09:26:43.405Z,76.04
2018-06-15T09:27:43.329Z,76.04
2018-06-15T09:28:43.239Z,76.04
2018-06-15T09:29:43.145Z,76.43
2018-06-15T09:30:43.085Z,76.72
2018-06-15T09:31:42.965Z,76.24
2018-06-15T09:32:42.933Z,76.53
2018-06-15T09:33:42.790Z,76.82
2018-06-15T09:34:42.704Z,75.07
2018-06-15T09:35:42.615Z,76.14
2018-06-15T09:36:42.523Z,77.50
2018-06-15T09:37:42.432Z,78.91
2018-06-15T09:38:42.341Z,78.85
2018-06-15T09:39:42.262Z,78.85
2018-06-15T09:40:42.175Z,76.39
2018-06-15T09:41:42.080Z,74.65
2018-06-15T09:42:41.991Z,75.43
2018-06-15T09:43:41.900Z,75.46
2018-06-15T09:44:41.822Z,73.33
2018-06-15T09:45:41.730Z,73.27
2018-06-15T09:46:41.639Z,71.18
2018-06-15T09:47:41.552Z,71.99
2018-06-15T09:48:41.458Z,68.79
2018-06-15T09:49:41.379Z,69.37
2018-06-15T09:50:41.289Z,66.99
2018-06-15T09:51:41.197Z,67.21
2018-06-15T09:52:41.106Z,65.95
2018-06-15T09:53:41.024Z,64.88
2018-06-15T09:54:40.937Z,65.01
2018-06-15T09:55:40.848Z,62.07
2018-06-15T09:56:40.756Z,59.64
2018-06-15T09:57:40.677Z,58.43
2018-06-15T09:58:40.589Z,58.98
2018-06-15T09:59:40.495Z,57.07
2018-06-15T10:00:40.419Z,57.92
2018-06-15T10:01:40.327Z,56.95
2018-06-15T10:02:40.236Z,54.57
2018-06-15T10:03:40.162Z,53.16
2018-06-15T10:04:40.068Z,53.14
2018-06-15T10:05:39.989Z,54.40
2018-06-15T10:06:39.897Z,53.30
2018-06-15T10:07:39.808Z,54.21
2018-06-15T10:08:39.730Z,53.23
2018-06-15T10:09:39.652Z,54.25
2018-06-15T10:10:39.560Z,54.08
2018-06-15T10:11:39.470Z,53.33
2018-06-15T10:12:39.394Z,52.23
2018-06-15T10:13:39.302Z,54.08
2018-06-15T10:14:39.221Z,55.68
2018-06-15T10:15:39.134Z,55.85
2018-06-15T10:16:39.088Z,57.64
2018-06-15T10:17:38.962Z,58.12
2018-06-15T10:18:38.883Z,59.09
2018-06-15T10:19:39.043Z,60.10
2018-06-15T10:20:38.716Z,61.62
2018-06-15T10:21:38.624Z,63.01
2018-06-15T10:22:38.547Z,63.69
2018-06-15T10:23:38.456Z,62.43
2018-06-15T10:24:38.377Z,62.13
2018-06-15T10:25:38.285Z,60.32
2018-06-15T10:26:38.220Z,59.00
2018-06-15T10:27:38.118Z,58.77
2018-06-15T10:28:38.026Z,60.03
2018-06-15T10:29:37.947Z,60.16
2018-06-15T10:30:37.857Z,57.60
2018-06-15T10:31:37.779Z,56.50
2018-06-15T10:32:37.688Z,56.79
2018-06-15T10:33:37.609Z,57.51
2018-06-15T10:34:37.518Z,60.07
2018-06-15T10:35:37.440Z,61.85
2018-06-15T10:36:37.349Z,62.13
2018-06-15T10:37:37.259Z,59.91
2018-06-15T10:38:37.180Z,60.20
2018-06-15T10:39:37.133Z,61.26
2018-06-15T10:40:37.011Z,60.97
2018-06-15T10:41:36.921Z,60.97
2018-06-15T10:42:36.831Z,61.24
2018-06-15T10:43:36.751Z,62.37
2018-06-15T10:44:36.660Z,62.95
2018-06-15T10:45:36.593Z,63.14
2018-06-15T10:46:36.491Z,63.11
2018-06-15T10:47:36.405Z,62.66
2018-06-15T10:48:36.323Z,63.24
2018-06-15T10:49:36.230Z,63.37
2018-06-15T10:50:36.142Z,61.36
2018-06-15T10:51:36.063Z,60.97
2018-06-15T10:52:35.971Z,60.23
2018-06-15T10:53:35.881Z,58.90
2018-06-15T10:54:35.802Z,58.34
2018-06-15T10:55:35.711Z,58.44
2018-06-15T10:56:35.634Z,56.98
2018-06-15T10:57:35.543Z,56.72
2018-06-15T10:58:35.452Z,55.80
2018-06-15T10:59:35.372Z,54.66
2018-06-15T11:00:35.282Z,52.82
2018-06-15T11:01:35.192Z,52.06
2018-06-15T11:02:35.113Z,52.59
2018-06-15T11:03:35.024Z,54.22
2018-06-15T11:04:34.945Z,55.55
2018-06-15T11:05:34.853Z,56.50
2018-06-15T11:06:34.779Z,55.85
2018-06-15T11:07:34.685Z,56.43
2018-06-15T11:08:34.608Z,56.43
2018-06-15T11:09:34.517Z,56.40
2018-06-15T11:10:34.425Z,55.75
2018-06-15T11:11:34.347Z,56.04
2018-06-15T11:12:34.255Z,55.98
2018-06-15T11:13:34.177Z,54.68
2018-06-15T11:14:34.146Z,55.63
2018-06-15T11:15:34.008Z,56.34
2018-06-15T11:16:33.916Z,56.21
2018-06-15T11:17:33.827Z,54.29
2018-06-15T11:18:33.752Z,55.82
2018-06-15T11:19:33.657Z,56.01
2018-06-15T11:20:33.580Z,55.47
2018-06-15T11:21:33.488Z,56.37
2018-06-15T11:22:33.410Z,56.47
2018-06-15T11:23:33.359Z,57.54
2018-06-15T11:24:33.239Z,56.40
2018-06-15T11:25:33.150Z,55.89
2018-06-15T11:26:33.065Z,56.60
2018-06-15T11:27:32.980Z,55.73
2018-06-15T11:28:32.893Z,55.92
2018-06-15T11:29:32.799Z,56.18
2018-06-15T11:30:32.733Z,55.89
2018-06-15T11:31:32.630Z,55.38
2018-06-15T11:32:32.551Z,56.03
2018-06-15T11:33:32.460Z,58.36
2018-06-15T11:34:32.371Z,58.06
2018-06-15T11:35:32.291Z,58.26
2018-06-15T11:36:32.200Z,58.94
2018-06-15T11:37:32.121Z,58.91
2018-06-15T11:38:32.032Z,60.82
2018-06-15T11:39:31.942Z,61.49
2018-06-15T11:40:31.861Z,60.52
2018-06-15T11:41:31.773Z,63.01
2018-06-15T11:42:31.682Z,62.63
2018-06-15T11:43:31.602Z,63.49
2018-06-15T11:44:31.516Z,64.07
2018-06-15T11:45:31.420Z,66.40
2018-06-15T11:46:31.331Z,66.20
2018-06-15T11:47:31.253Z,66.20
2018-06-15T11:48:31.163Z,66.88
2018-06-15T11:49:31.069Z,65.27
2018-06-15T11:50:30.993Z,63.40
2018-06-15T11:51:30.900Z,63.56
2018-06-15T11:52:30.811Z,63.37
2018-06-15T11:53:30.721Z,64.14
2018-06-15T11:54:30.640Z,65.98
2018-06-15T11:55:30.550Z,67.98
2018-06-15T11:56:30.458Z,68.46
2018-06-15T11:57:30.408Z,69.33
2018-06-15T11:58:30.302Z,70.56
2018-06-15T11:59:30.199Z,70.20
2018-06-15T12:00:30.109Z,70.59
2018-06-15T12:01:30.018Z,71.75
2018-06-15T12:02:29.926Z,72.14
2018-06-15T12:03:29.851Z,72.14
2018-06-15T12:04:29.756Z,73.26
2018-06-15T12:05:29.667Z,74.77
2018-06-15T12:06:29.576Z,76.51
2018-06-15T12:07:29.485Z,76.70
2018-06-15T12:08:29.396Z,78.02
2018-06-15T12:09:29.316Z,79.47
2018-06-15T12:10:29.226Z,79.27
2018-06-15T12:11:29.133Z,78.59
2018-06-15T12:12:29.044Z,78.69
2018-06-15T12:13:28.957Z,80.05
2018-06-15T12:14:28.862Z,79.85
2018-06-15T12:15:28.772Z,80.53
2018-06-15T12:16:28.692Z,80.72
2018-06-15T12:17:28.604Z,81.11
2018-06-15T12:18:28.513Z,80.53
2018-06-15T12:19:28.420Z,80.53
2018-06-15T12:20:28.329Z,81.11
2018-06-15T12:21:28.238Z,80.24
2018-06-15T12:22:28.147Z,79.37
2018-06-15T12:23:28.069Z,79.66
2018-06-15T12:24:27.969Z,79.70
2018-06-15T12:25:27.876Z,80.18
2018-06-15T12:26:27.786Z,79.80
2018-06-15T12:27:27.706Z,79.70
2018-06-15T12:28:27.621Z,79.35
2018-06-15T12:29:27.524Z,78.58
2018-06-15T12:30:27.435Z,77.42
2018-06-15T12:31:27.343Z,76.55
2018-06-15T12:32:27.252Z,77.38
2018-06-15T12:33:27.161Z,76.80
2018-06-15T12:34:27.071Z,76.12
2018-06-15T12:35:26.980Z,76.35
2018-06-15T12:36:26.890Z,76.70
2018-06-15T12:37:26.798Z,78.29
2018-06-15T12:38:26.709Z,76.26
2018-06-15T12:39:26.617Z,75.97
2018-06-15T12:40:26.527Z,77.03
2018-06-15T12:41:26.436Z,75.29
2018-06-15T12:42:26.357Z,74.46
2018-06-15T12:43:26.266Z,73.78
2018-06-15T12:44:26.174Z,74.17
2018-06-15T12:45:26.086Z,72.75
2018-06-15T12:46:25.994Z,69.95
2018-06-15T12:47:25.902Z,69.40
2018-06-15T12:48:25.811Z,67.98
2018-06-15T12:49:25.721Z,65.95
2018-06-15T12:50:25.630Z,64.69
2018-06-15T12:51:25.545Z,64.92